Time;durP1;ratioP1;P1;durP2;ratioP2;P2;SDS_P1;SDS_P2;PMS_P1;PMS_P2;Temp;Humidity;BMP_temperature;BMP_pressure;BME280_temperature;BME280_humidity;BME280_pressure;Samples;Min_cycle;Max_cycle;Signal;HPM_P1;HPM_P2
2022/10/07 00:01:25;;;;;;;16.10;4.90;;;12.20;99.90;;;;;;5118037;27;20208;-72
2022/10/07 00:03:51;;;;;;;15.40;5.27;;;12.20;99.90;;;;;;5136235;27;20163;-70
2022/10/07 00:06:18;;;;;;;17.67;5.87;;;12.30;99.90;;;;;;5135852;27;20557;-72
2022/10/07 00:08:48;;;;;;;16.00;5.40;;;12.20;99.90;;;;;;5136229;27;20167;-71
2022/10/07 00:11:23;;;;;;;15.77;5.27;;;12.10;99.90;;;;;;5136266;27;20223;-71
2022/10/07 00:13:55;;;;;;;15.77;5.40;;;12.10;99.90;;;;;;5136262;27;20206;-70
2022/10/07 00:16:24;;;;;;;15.67;5.87;;;12.10;99.90;;;;;;5136223;27;20219;-72
2022/10/07 00:18:51;;;;;;;14.93;5.77;;;12.00;99.90;;;;;;5135968;27;20205;-72
2022/10/07 00:21:18;;;;;;;17.37;5.20;;;11.90;99.90;;;;;;5135612;27;20170;-70
2022/10/07 00:23:45;;;;;;;16.23;5.57;;;12.00;99.90;;;;;;5136082;27;20185;-70
2022/10/07 00:26:14;;;;;;;18.43;5.70;;;12.00;99.90;;;;;;5134749;27;20660;-70
2022/10/07 00:28:40;;;;;;;15.87;6.30;;;12.00;99.90;;;;;;5117218;27;20618;-71
2022/10/07 00:31:09;;;;;;;19.00;5.87;;;11.90;99.90;;;;;;5135872;27;20178;-70
2022/10/07 00:33:38;;;;;;;19.90;6.17;;;11.90;99.90;;;;;;5135702;27;20201;-70
2022/10/07 00:36:08;;;;;;;16.40;5.50;;;11.90;99.90;;;;;;5135207;27;20178;-70
2022/10/07 00:38:34;;;;;;;16.30;5.90;;;11.90;99.90;;;;;;5135505;27;20190;-70
2022/10/07 00:41:00;;;;;;;25.17;5.80;;;11.90;99.90;;;;;;5135662;27;20163;-71
2022/10/07 00:43:28;;;;;;;22.00;6.13;;;11.80;99.90;;;;;;5135650;27;20166;-71
2022/10/07 00:46:17;;;;;;;16.63;6.77;;;11.70;99.90;;;;;;5135386;27;20206;-71
2022/10/07 00:48:44;;;;;;;17.60;6.40;;;11.60;99.90;;;;;;5102763;27;20535;-71
2022/10/07 00:51:11;;;;;;;24.50;6.20;;;11.50;99.90;;;;;;5134906;27;20170;-71
2022/10/07 00:53:39;;;;;;;20.77;5.57;;;11.40;99.90;;;;;;5135617;27;20201;-71
2022/10/07 00:56:06;;;;;;;18.23;6.87;;;11.40;99.90;;;;;;5135448;27;20174;-71
2022/10/07 00:58:35;;;;;;;19.97;6.23;;;11.30;99.90;;;;;;5135178;27;20208;-71
2022/10/07 01:01:01;;;;;;;15.57;5.83;;;11.30;99.90;;;;;;5135251;27;20163;-71
2022/10/07 01:03:27;;;;;;;20.97;6.30;;;11.30;99.90;;;;;;5135409;27;20170;-71
2022/10/07 01:05:53;;;;;;;14.07;5.83;;;11.20;99.90;;;;;;5134925;27;20309;-71
2022/10/07 01:08:21;;;;;;;21.27;6.27;;;11.20;99.90;;;;;;5135143;27;20669;-71
2022/10/07 01:11:12;;;;;;;22.57;6.70;;;11.10;99.90;;;;;;5135064;27;20174;-71
2022/10/07 01:13:52;;;;;;;17.90;6.10;;;11.10;99.90;;;;;;5135034;27;20167;-71
2022/10/07 01:16:47;;;;;;;18.13;6.27;;;11.00;99.90;;;;;;5134992;27;20642;-71
2022/10/07 01:19:44;;;;;;;18.73;5.93;;;10.90;99.90;;;;;;5134510;27;20170;-70
2022/10/07 01:22:18;;;;;;;19.63;6.07;;;10.80;99.90;;;;;;5135046;27;20560;-70
2022/10/07 01:25:16;;;;;;;17.03;6.30;;;10.60;99.90;;;;;;5134743;27;20158;-70
2022/10/07 01:27:55;;;;;;;19.20;6.23;;;10.60;99.90;;;;;;5031505;28;20317;-72
2022/10/07 01:30:21;;;;;;;16.13;6.53;;;10.50;99.90;;;;;;5031372;28;20217;-71
2022/10/07 01:32:52;;;;;;;21.20;6.87;;;10.50;99.90;;;;;;5031424;28;20538;-71
2022/10/07 01:35:23;;;;;;;15.73;6.07;;;10.50;99.90;;;;;;5031244;28;20170;-72
2022/10/07 01:37:54;;;;;;;14.27;6.27;;;10.50;99.90;;;;;;5031445;28;20732;-70
2022/10/07 01:40:34;;;;;;;17.90;5.83;;;10.50;99.90;;;;;;5031480;28;20296;-71
2022/10/07 01:43:00;;;;;;;19.87;6.60;;;10.60;99.90;;;;;;5031489;28;20192;-71
2022/10/07 01:45:29;;;;;;;13.03;6.27;;;10.60;99.90;;;;;;5031229;28;20182;-71
2022/10/07 01:47:55;;;;;;;18.00;6.13;;;10.60;99.90;;;;;;5031012;28;20201;-70
2022/10/07 01:50:24;;;;;;;15.30;5.80;;;10.60;99.90;;;;;;5031384;28;20606;-71
2022/10/07 01:52:50;;;;;;;21.00;6.37;;;10.70;99.90;;;;;;5031491;28;20189;-72
2022/10/07 01:55:28;;;;;;;16.47;5.80;;;10.80;99.90;;;;;;5031338;28;20181;-71
2022/10/07 01:58:12;;;;;;;23.83;5.93;;;10.90;99.90;;;;;;5031065;28;20178;-71
2022/10/07 02:00:45;;;;;;;16.50;6.03;;;10.90;99.90;;;;;;5031171;28;20209;-71
2022/10/07 02:03:29;;;;;;;12.93;5.10;;;10.90;99.90;;;;;;5030837;28;20170;-72
2022/10/07 02:06:14;;;;;;;17.17;5.43;;;11.00;99.90;;;;;;5113671;28;20199;-71
2022/10/07 02:08:49;;;;;;;16.47;5.57;;;11.10;99.90;;;;;;5113719;28;20197;-71
2022/10/07 02:11:26;;;;;;;15.03;5.30;;;11.00;99.90;;;;;;5113771;28;20166;-71
2022/10/07 02:13:55;;;;;;;16.33;5.83;;;10.90;99.90;;;;;;5113726;28;20220;-71
2022/10/07 02:16:38;;;;;;;15.77;5.30;;;10.90;99.90;;;;;;5113578;28;20171;-71
2022/10/07 02:19:31;;;;;;;13.43;4.73;;;10.90;99.90;;;;;;5113234;28;20657;-73
2022/10/07 02:22:00;;;;;;;19.93;5.70;;;10.90;99.90;;;;;;5102565;28;20233;-70
2022/10/07 02:24:29;;;;;;;20.40;6.00;;;10.90;99.90;;;;;;5112242;28;20168;-70
2022/10/07 02:26:58;;;;;;;17.07;4.90;;;10.90;99.90;;;;;;5113394;28;20662;-70
2022/10/07 02:29:26;;;;;;;15.60;5.27;;;10.90;99.90;;;;;;5120202;28;20218;-70
2022/10/07 02:31:53;;;;;;;17.13;5.47;;;10.90;99.90;;;;;;5133611;28;20173;-70
2022/10/07 02:34:23;;;;;;;14.20;5.43;;;10.80;99.90;;;;;;5134034;28;20166;-71
2022/10/07 02:36:53;;;;;;;16.27;5.63;;;10.80;99.90;;;;;;5133978;28;20166;-71
2022/10/07 02:39:20;;;;;;;16.13;5.67;;;10.80;99.90;;;;;;5134042;28;20166;-72
2022/10/07 02:41:55;;;;;;;18.03;5.23;;;10.70;99.90;;;;;;5133839;28;20171;-72
2022/10/07 02:44:45;;;;;;;18.20;5.87;;;10.70;99.90;;;;;;5115552;28;20231;-71
2022/10/07 02:47:27;;;;;;;13.17;5.00;;;10.70;99.90;;;;;;5133460;28;20285;-71
2022/10/07 02:49:56;;;;;;;21.47;5.63;;;10.70;99.90;;;;;;5136095;27;20166;-71
2022/10/07 02:52:23;;;;;;;17.63;5.43;;;10.70;99.90;;;;;;5137745;27;20178;-72
2022/10/07 02:54:59;;;;;;;15.97;5.33;;;10.70;99.90;;;;;;5137858;27;20163;-71
2022/10/07 02:57:29;;;;;;;17.30;5.47;;;10.60;99.90;;;;;;5137436;27;20185;-71
2022/10/07 02:59:57;;;;;;;18.17;5.40;;;10.60;99.90;;;;;;5137743;27;20559;-71
2022/10/07 03:02:31;;;;;;;15.23;5.10;;;10.60;99.90;;;;;;5137315;27;20163;-71
2022/10/07 03:04:57;;;;;;;12.07;4.30;;;10.60;99.90;;;;;;5137627;27;20227;-71
2022/10/07 03:07:25;;;;;;;15.33;4.57;;;10.60;99.90;;;;;;5137170;27;20213;-71
2022/10/07 03:09:51;;;;;;;19.67;4.43;;;10.70;99.90;;;;;;5119027;27;20189;-71
2022/10/07 03:12:17;;;;;;;15.90;4.63;;;10.80;99.90;;;;;;5137384;27;20301;-71
2022/10/07 03:14:43;;;;;;;14.07;4.47;;;10.80;99.90;;;;;;5137024;27;20200;-71
2022/10/07 03:17:09;;;;;;;15.83;4.33;;;10.90;99.90;;;;;;5137205;27;20165;-71
2022/10/07 03:19:35;;;;;;;14.90;4.13;;;10.80;99.90;;;;;;5137018;27;20175;-71
2022/10/07 03:22:01;;;;;;;14.67;4.07;;;10.90;99.90;;;;;;5136756;27;20204;-71
2022/10/07 03:24:27;;;;;;;14.33;4.13;;;10.90;99.90;;;;;;5137238;27;20158;-71
2022/10/07 03:26:53;;;;;;;13.87;3.87;;;11.00;99.90;;;;;;5136995;27;20603;-72
2022/10/07 03:29:19;;;;;;;12.47;3.97;;;11.10;99.90;;;;;;5136214;27;20312;-72
2022/10/07 03:31:44;;;;;;;12.93;4.13;;;11.10;99.90;;;;;;5136855;27;20171;-72
2022/10/07 03:34:10;;;;;;;14.50;4.53;;;11.10;99.90;;;;;;5136968;27;20167;-72
2022/10/07 03:36:36;;;;;;;9.83;3.97;;;11.10;99.90;;;;;;5136734;27;20166;-72
2022/10/07 03:39:02;;;;;;;16.17;4.60;;;11.10;99.90;;;;;;5137089;27;20249;-71
2022/10/07 03:41:28;;;;;;;11.53;4.53;;;11.10;99.90;;;;;;5136281;27;20174;-71
2022/10/07 03:43:56;;;;;;;15.20;5.07;;;11.10;99.90;;;;;;5136553;27;20167;-72
2022/10/07 03:46:22;;;;;;;18.20;5.60;;;11.20;99.90;;;;;;5136229;27;20216;-71
2022/10/07 03:48:47;;;;;;;17.93;4.90;;;11.30;99.90;;;;;;5118276;27;20256;-71
2022/10/07 03:51:13;;;;;;;17.40;5.13;;;11.30;99.90;;;;;;5136212;27;20179;-72
2022/10/07 03:53:39;;;;;;;14.37;6.10;;;11.40;99.90;;;;;;5136418;27;20603;-71
2022/10/07 03:56:05;;;;;;;17.40;6.60;;;11.40;99.90;;;;;;5136286;27;20240;-71
2022/10/07 03:58:31;;;;;;;15.93;6.40;;;11.40;99.90;;;;;;5117092;27;20714;-71
2022/10/07 04:01:04;;;;;;;23.13;7.00;;;11.40;99.90;;;;;;5136256;27;20263;-71
2022/10/07 04:03:30;;;;;;;16.47;5.97;;;11.40;99.90;;;;;;5118006;27;20179;-71
2022/10/07 04:06:00;;;;;;;16.47;6.97;;;11.50;99.90;;;;;;5135869;27;20706;-71
2022/10/07 04:08:28;;;;;;;19.77;6.90;;;11.50;99.90;;;;;;5135948;27;20163;-72
2022/10/07 04:10:54;;;;;;;22.07;7.07;;;11.50;99.90;;;;;;5136040;27;20175;-71
2022/10/07 04:13:20;;;;;;;15.23;5.70;;;11.50;99.90;;;;;;5135743;27;20167;-71
2022/10/07 04:15:45;;;;;;;15.47;6.27;;;11.50;99.90;;;;;;5136113;27;20179;-71
2022/10/07 04:18:11;;;;;;;18.97;6.13;;;11.50;99.90;;;;;;5117505;27;20167;-72
2022/10/07 04:20:37;;;;;;;18.00;5.57;;;11.50;99.90;;;;;;5135614;27;20456;-71
2022/10/07 04:23:03;;;;;;;16.03;5.80;;;11.50;99.90;;;;;;5135615;27;20181;-71
2022/10/07 04:25:36;;;;;;;17.47;5.87;;;11.50;99.90;;;;;;5135401;27;20642;-71
2022/10/07 04:28:04;;;;;;;15.33;5.60;;;11.50;99.90;;;;;;5135471;27;20707;-70
2022/10/07 04:30:32;;;;;;;15.93;5.70;;;11.50;99.90;;;;;;5135445;27;20226;-71
2022/10/07 04:33:01;;;;;;;16.57;5.53;;;11.50;99.90;;;;;;5135285;27;20299;-72
2022/10/07 04:35:28;;;;;;;20.73;5.63;;;11.50;99.90;;;;;;5134941;27;20173;-72
2022/10/07 04:37:54;;;;;;;13.87;4.77;;;11.60;99.90;;;;;;5135373;27;20178;-72
2022/10/07 04:40:21;;;;;;;19.57;5.20;;;11.50;99.90;;;;;;5134712;27;20170;-71
2022/10/07 04:45:35;;;;;;;12.13;4.60;;;11.50;99.90;;;;;;5135606;27;20184;-73
2022/10/07 04:48:04;;;;;;;16.07;4.63;;;11.40;99.90;;;;;;5135121;27;20177;-71
2022/10/07 04:50:32;;;;;;;16.90;4.83;;;11.40;99.90;;;;;;5134795;27;20169;-70
2022/10/07 04:52:58;;;;;;;19.00;4.60;;;11.40;99.90;;;;;;5134972;27;20262;-71
2022/10/07 04:55:25;;;;;;;17.43;5.03;;;11.40;99.90;;;;;;5134746;27;20546;-72
2022/10/07 04:57:51;;;;;;;13.20;4.10;;;11.40;99.90;;;;;;5134057;27;20235;-72
2022/10/07 05:00:17;;;;;;;10.13;4.13;;;11.40;99.90;;;;;;5134026;27;20167;-72
2022/10/07 05:02:45;;;;;;;17.13;4.47;;;11.30;99.90;;;;;;5134966;27;20169;-72
2022/10/07 05:05:11;;;;;;;12.50;4.27;;;11.40;99.90;;;;;;5134655;27;20649;-72
2022/10/07 05:07:36;;;;;;;18.13;4.07;;;11.30;99.90;;;;;;5134745;27;20206;-73
2022/10/07 05:10:02;;;;;;;13.87;3.30;;;11.30;99.90;;;;;;5134583;27;20627;-72
2022/10/07 05:12:28;;;;;;;13.00;3.83;;;11.30;99.90;;;;;;5133528;27;20171;-72
2022/10/07 05:14:53;;;;;;;12.47;3.70;;;11.30;99.90;;;;;;5134308;27;20663;-72
2022/10/07 05:17:19;;;;;;;8.27;3.27;;;11.20;99.90;;;;;;5115645;27;20170;-72
2022/10/07 05:19:44;;;;;;;9.80;3.37;;;11.30;99.90;;;;;;5134315;27;20707;-72
2022/10/07 05:22:10;;;;;;;12.47;3.70;;;11.30;99.90;;;;;;5133785;27;20189;-72
2022/10/07 05:24:36;;;;;;;16.00;4.23;;;11.30;99.90;;;;;;5133691;27;20645;-72
2022/10/07 05:27:01;;;;;;;12.73;3.50;;;11.30;99.90;;;;;;5114948;27;20206;-72
2022/10/07 05:29:27;;;;;;;11.30;3.20;;;11.30;99.90;;;;;;5133729;27;20218;-72
2022/10/07 05:31:53;;;;;;;10.03;3.50;;;11.30;99.90;;;;;;5133716;27;20177;-74
2022/10/07 05:34:19;;;;;;;13.67;3.50;;;11.20;99.90;;;;;;5133290;27;20202;-73
2022/10/07 05:36:44;;;;;;;14.07;3.60;;;11.20;99.90;;;;;;5133432;27;20201;-71
2022/10/07 05:39:10;;;;;;;11.70;3.27;;;11.20;99.90;;;;;;5134067;27;20527;-71
2022/10/07 05:41:38;;;;;;;13.17;3.53;;;11.20;99.90;;;;;;5133236;27;20526;-71
2022/10/07 05:44:03;;;;;;;10.70;3.53;;;11.20;99.90;;;;;;5134166;27;20245;-72
2022/10/07 05:46:29;;;;;;;11.60;3.80;;;11.20;99.90;;;;;;5133200;27;20285;-71
2022/10/07 05:48:55;;;;;;;12.63;3.57;;;11.30;99.90;;;;;;5133393;27;20268;-72
2022/10/07 05:51:22;;;;;;;14.13;3.97;;;11.20;99.90;;;;;;5133669;27;20177;-72
2022/10/07 05:53:51;;;;;;;15.70;3.57;;;11.20;99.90;;;;;;5133736;27;20171;-72
2022/10/07 05:56:21;;;;;;;13.67;3.43;;;11.30;99.90;;;;;;5132108;27;20234;-72
2022/10/07 05:58:51;;;;;;;14.30;3.90;;;11.20;99.90;;;;;;5132719;27;20166;-72
2022/10/07 06:01:19;;;;;;;11.93;3.33;;;11.10;99.90;;;;;;5133201;27;20159;-72
2022/10/07 06:03:50;;;;;;;8.17;3.20;;;11.10;99.90;;;;;;5133390;27;20670;-72
2022/10/07 06:06:16;;;;;;;17.07;3.40;;;11.20;99.90;;;;;;5133301;27;20206;-72
2022/10/07 06:08:41;;;;;;;9.90;3.70;;;11.20;99.90;;;;;;5132869;28;20163;-71
2022/10/07 06:13:55;;;;;;;14.10;3.30;;;11.40;99.90;;;;;;5133318;28;20644;-71
2022/10/07 06:16:22;;;;;;;10.37;3.33;;;11.50;99.90;;;;;;5132413;28;20202;-74
2022/10/07 06:18:51;;;;;;;16.33;3.67;;;11.60;99.90;;;;;;5133661;28;20223;-73
2022/10/07 06:21:22;;;;;;;11.97;4.13;;;11.80;99.90;;;;;;5132378;28;20518;-74
2022/10/07 06:23:51;;;;;;;15.17;3.77;;;11.90;99.90;;;;;;5133402;27;20162;-72
2022/10/07 06:26:18;;;;;;;14.40;3.83;;;12.00;99.90;;;;;;5136880;27;20201;-73
2022/10/07 06:28:43;;;;;;;13.80;3.90;;;12.10;99.90;;;;;;5136289;27;20167;-74
2022/10/07 06:31:15;;;;;;;14.23;3.73;;;12.20;99.90;;;;;;5118286;27;20163;-74
2022/10/07 06:33:41;;;;;;;21.20;4.30;;;12.30;99.90;;;;;;5136858;27;20245;-72
2022/10/07 06:36:12;;;;;;;18.30;3.63;;;12.50;99.90;;;;;;5136964;27;20547;-72
2022/10/07 06:38:42;;;;;;;14.10;4.03;;;12.40;99.90;;;;;;5136588;27;20207;-73
2022/10/07 06:41:08;;;;;;;13.20;3.50;;;12.50;99.90;;;;;;5136630;27;20194;-72
2022/10/07 06:43:34;;;;;;;15.63;4.00;;;12.60;99.90;;;;;;5136918;27;20198;-71
2022/10/07 06:46:03;;;;;;;13.73;3.90;;;12.70;99.90;;;;;;5136868;27;20284;-71
2022/10/07 06:48:31;;;;;;;10.83;3.60;;;12.90;99.90;;;;;;5136345;27;20568;-72
2022/10/07 06:50:58;;;;;;;17.63;4.33;;;13.20;99.90;;;;;;5118573;27;20183;-72
2022/10/07 06:53:24;;;;;;;13.33;3.23;;;13.70;99.90;;;;;;5135362;27;20170;-73
2022/10/07 06:55:53;;;;;;;11.63;3.70;;;14.60;99.90;;;;;;5135518;27;20170;-74
2022/10/07 06:58:19;;;;;;;11.93;3.77;;;15.40;99.90;;;;;;5136413;27;20207;-74
2022/10/07 07:00:49;;;;;;;16.10;3.60;;;16.10;99.90;;;;;;5136305;27;20162;-75
2022/10/07 07:03:15;;;;;;;12.93;3.77;;;16.20;99.90;;;;;;5136795;27;20218;-75
2022/10/07 07:05:41;;;;;;;9.27;3.27;;;16.60;99.90;;;;;;5136533;27;20163;-75
2022/10/07 07:08:07;;;;;;;9.03;3.43;;;17.10;99.90;;;;;;5135900;27;20269;-76
2022/10/07 07:10:41;;;;;;;10.50;3.70;;;17.60;99.90;;;;;;5136651;27;20198;-78
2022/10/07 07:13:07;;;;;;;8.65;3.30;;;18.20;99.90;;;;;;5118141;27;20186;-77
2022/10/07 07:15:34;;;;;;;12.75;3.60;;;19.20;99.30;;;;;;5135608;27;20178;-77
2022/10/07 07:18:00;;;;;;;13.57;4.03;;;20.40;97.40;;;;;;5136618;27;20166;-76
2022/10/07 07:20:33;;;;;;;13.00;4.47;;;20.80;94.90;;;;;;5136132;27;20171;-76
2022/10/07 07:22:59;;;;;;;12.75;4.35;;;21.20;94.60;;;;;;5136226;27;20239;-76
2022/10/07 07:25:25;;;;;;;13.85;5.00;;;21.60;93.60;;;;;;5136104;27;20158;-76
2022/10/07 07:27:51;;;;;;;15.20;4.05;;;21.50;91.40;;;;;;5107902;27;20282;-76
2022/10/07 07:30:20;;;;;;;14.15;4.65;;;22.50;90.60;;;;;;5126717;27;20260;-75
2022/10/07 07:32:46;;;;;;;19.60;5.10;;;22.90;88.10;;;;;;5134323;28;20257;-75
2022/10/07 07:35:12;;;;;;;16.33;4.32;;;24.30;80.70;;;;;;5133692;27;20221;-76
2022/10/07 07:37:38;;;;;;;12.65;4.43;;;23.60;99.90;;;;;;5134230;28;20190;-75
2022/10/07 07:40:04;;;;;;;11.60;4.07;;;23.60;99.90;;;;;;5115126;28;20247;-77
2022/10/07 07:42:30;;;;;;;13.10;4.20;;;24.10;99.90;;;;;;5133703;28;20652;-79
2022/10/07 07:44:55;;;;;;;10.13;4.05;;;24.40;99.90;;;;;;5133665;28;20174;-78
2022/10/07 07:47:21;;;;;;;13.70;4.30;;;24.90;99.90;;;;;;5134281;28;20273;-78
2022/10/07 07:49:49;;;;;;;12.38;4.00;;;25.20;99.90;;;;;;5133832;28;20224;-78
2022/10/07 07:52:14;;;;;;;11.05;3.88;;;25.60;99.90;;;;;;5133280;28;20162;-78
2022/10/07 07:54:40;;;;;;;12.38;4.78;;;25.50;99.90;;;;;;5133685;28;20166;-78
2022/10/07 07:57:07;;;;;;;12.43;5.13;;;25.00;99.90;;;;;;5133278;28;20174;-78
2022/10/07 07:59:33;;;;;;;11.63;4.20;;;25.10;99.90;;;;;;5134026;28;20167;-78
2022/10/07 08:01:59;;;;;;;17.08;4.78;;;25.10;99.90;;;;;;5133667;28;20185;-79
2022/10/07 08:04:25;;;;;;;8.52;4.38;;;26.20;99.90;;;;;;5134073;28;20178;-77
2022/10/07 08:06:51;;;;;;;11.52;4.70;;;25.50;99.90;;;;;;5133653;28;20202;-81
2022/10/07 08:09:16;;;;;;;13.88;4.40;;;25.00;99.90;;;;;;5134210;28;20250;-80
2022/10/07 08:11:45;;;;;;;10.63;4.03;;;25.90;99.90;;;;;;5133135;28;20182;-80
2022/10/07 08:14:12;;;;;;;13.55;4.40;;;26.20;99.90;;;;;;5134589;28;20193;-78
2022/10/07 08:16:38;;;;;;;10.43;5.45;;;26.50;99.90;;;;;;5134015;28;20163;-79
2022/10/07 08:19:03;;;;;;;11.05;3.80;;;26.50;99.90;;;;;;5133698;28;20158;-78
2022/10/07 08:21:32;;;;;;;10.48;3.80;;;26.00;99.90;;;;;;5133892;28;20177;-79
2022/10/07 08:23:59;;;;;;;14.93;4.28;;;25.50;99.90;;;;;;5133755;28;20659;-78
2022/10/07 08:26:29;;;;;;;12.27;4.22;;;26.30;99.90;;;;;;5133050;28;20214;-79
2022/10/07 08:28:56;;;;;;;10.00;4.30;;;26.30;99.90;;;;;;5094019;27;1109844;-79
2022/10/07 08:31:26;;;;;;;13.25;4.30;;;26.70;99.90;;;;;;5134351;27;20189;-79
2022/10/07 08:33:53;;;;;;;12.13;4.55;;;26.40;99.90;;;;;;5124011;27;20186;-79
2022/10/07 08:36:20;;;;;;;12.25;4.25;;;27.10;99.90;;;;;;5129308;27;20250;-79
2022/10/07 08:38:47;;;;;;;10.05;4.40;;;26.00;99.90;;;;;;5133452;27;20181;-79
2022/10/07 08:41:21;;;;;;;11.60;4.25;;;26.30;99.90;;;;;;5133583;27;20173;-78
2022/10/07 08:43:48;;;;;;;14.70;4.22;;;26.30;99.90;;;;;;5133887;27;20178;-78
2022/10/07 08:46:36;;;;;;;14.68;4.85;;;26.90;99.90;;;;;;5132475;27;20207;-80
2022/10/07 08:49:12;;;;;;;11.02;4.57;;;26.30;99.90;;;;;;5115873;27;20238;-79
2022/10/07 08:51:40;;;;;;;10.98;4.07;;;26.30;99.90;;;;;;5142663;27;20166;-80
2022/10/07 08:54:12;;;;;;;15.50;4.40;;;26.60;99.90;;;;;;5119185;28;20176;-80
2022/10/07 08:56:38;;;;;;;12.45;4.60;;;27.10;99.90;;;;;;5131034;27;20699;-80
2022/10/07 08:59:31;;;;;;;12.25;4.50;;;26.10;99.90;;;;;;5134378;27;20654;-79
2022/10/07 09:02:21;;;;;;;11.77;4.72;;;26.80;99.90;;;;;;5134243;27;20200;-80
2022/10/07 09:05:21;;;;;;;13.75;4.78;;;26.50;99.90;;;;;;5132745;27;20166;-80
2022/10/07 09:07:56;;;;;;;12.48;4.13;;;25.40;99.90;;;;;;5115887;27;20206;-79
2022/10/07 09:10:27;;;;;;;9.93;4.38;;;25.20;99.90;;;;;;5133197;27;20166;-80
2022/10/07 09:13:04;;;;;;;17.92;5.32;;;25.10;99.90;;;;;;5133766;27;20198;-78
2022/10/07 09:15:47;;;;;;;13.07;5.65;;;24.70;99.90;;;;;;5133164;27;20215;-78
2022/10/07 09:18:26;;;;;;;11.85;4.65;;;24.90;99.90;;;;;;5133277;27;20640;-78
2022/10/07 09:20:54;;;;;;;10.27;4.53;;;25.10;99.90;;;;;;5133274;27;21285;-79
2022/10/07 09:23:28;;;;;;;8.00;3.83;;;25.50;99.90;;;;;;5133878;27;20254;-80
2022/10/07 09:25:54;;;;;;;10.98;4.15;;;26.10;99.90;;;;;;5133523;27;20253;-80
2022/10/07 09:28:26;;;;;;;13.43;4.40;;;25.20;99.90;;;;;;5133373;27;20299;-80
2022/10/07 09:30:51;;;;;;;10.27;4.35;;;24.80;99.90;;;;;;5133582;27;20221;-78
2022/10/07 09:33:22;;;;;;;12.32;5.28;;;24.40;99.90;;;;;;5133614;27;20538;-81
2022/10/07 09:35:54;;;;;;;13.82;4.63;;;24.70;99.90;;;;;;5134639;27;20270;-80
2022/10/07 09:38:39;;;;;;;11.25;4.63;;;25.10;99.90;;;;;;5114179;27;20239;-78
2022/10/07 09:41:18;;;;;;;14.13;4.43;;;24.40;99.90;;;;;;5095945;28;20168;-81
2022/10/07 09:43:57;;;;;;;11.82;4.10;;;24.70;99.90;;;;;;5112741;28;20175;-81
2022/10/07 09:46:45;;;;;;;12.25;4.55;;;25.40;99.90;;;;;;5127964;27;20206;-81
2022/10/07 09:49:26;;;;;;;9.57;4.05;;;26.30;99.90;;;;;;5114415;27;20174;-81
2022/10/07 09:52:13;;;;;;;10.63;4.18;;;26.40;99.90;;;;;;5133327;27;20211;-80
2022/10/07 09:54:39;;;;;;;7.60;3.83;;;27.00;99.90;;;;;;5133769;27;20169;-81
2022/10/07 09:57:05;;;;;;;10.32;3.97;;;27.00;99.90;;;;;;5133334;27;20182;-81
2022/10/07 09:59:34;;;;;;;8.57;3.83;;;27.30;99.90;;;;;;5134468;27;20212;-80
2022/10/07 10:02:29;;;;;;;15.23;4.63;;;26.30;99.90;;;;;;5133116;27;20196;-81
2022/10/07 10:04:56;;;;;;;15.20;4.25;;;26.60;99.90;;;;;;5030383;28;20220;-79
2022/10/07 10:07:35;;;;;;;8.73;3.38;;;25.40;99.90;;;;;;5030491;28;20345;-80
2022/10/07 10:10:20;;;;;;;7.72;3.75;;;25.50;99.90;;;;;;5029972;28;20188;-78
2022/10/07 10:12:51;;;;;;;9.75;3.70;;;25.70;99.90;;;;;;5030565;28;20240;-82
2022/10/07 10:15:23;;;;;;;9.77;3.45;;;25.50;99.90;;;;;;5030262;28;20240;-81
2022/10/07 10:17:49;;;;;;;9.35;3.65;;;25.90;99.90;;;;;;5017836;28;20186;-79
2022/10/07 10:20:29;;;;;;;12.55;4.15;;;26.10;99.90;;;;;;5029489;28;20205;-81
2022/10/07 10:22:55;;;;;;;9.20;4.00;;;25.90;99.90;;;;;;5029794;28;20280;-81
2022/10/07 10:28:16;;;;;;;8.27;3.63;;;25.70;99.90;;;;;;5031183;28;20264;-80
2022/10/07 10:30:54;;;;;;;10.20;3.42;;;25.10;99.90;;;;;;5033640;28;20273;-82
2022/10/07 10:33:25;;;;;;;9.25;3.58;;;24.80;99.90;;;;;;5018856;28;20196;-81
2022/10/07 10:35:57;;;;;;;7.93;3.13;;;24.90;99.90;;;;;;5043942;28;20190;-80
2022/10/07 10:38:34;;;;;;;8.25;2.72;;;24.90;99.90;;;;;;5033454;28;20198;-81
2022/10/07 10:41:44;;;;;;;6.70;3.10;;;24.90;99.90;;;;;;5061893;28;20179;-81
2022/10/07 10:44:36;;;;;;;8.60;3.55;;;25.10;99.90;;;;;;5121119;28;20579;-81
2022/10/07 10:47:11;;;;;;;9.35;3.30;;;24.10;99.90;;;;;;5135025;28;20202;-81
2022/10/07 10:50:02;;;;;;;6.38;2.78;;;23.80;99.90;;;;;;5132712;28;20173;-81
2022/10/07 10:52:48;;;;;;;9.00;3.38;;;24.50;99.90;;;;;;5114317;28;20171;-82
2022/10/07 10:55:36;;;;;;;7.90;2.83;;;25.80;99.90;;;;;;5136655;28;20211;-81
2022/10/07 10:58:45;;;;;;;9.27;2.97;;;25.60;99.90;;;;;;5133181;28;20215;-81
2022/10/07 11:01:17;;;;;;;11.00;2.70;;;24.90;99.90;;;;;;5131803;28;20179;-81
2022/10/07 11:04:01;;;;;;;7.70;2.90;;;24.80;99.90;;;;;;5133020;28;20583;-81
2022/10/07 11:06:31;;;;;;;6.70;2.70;;;24.30;99.90;;;;;;5131966;28;20285;-80
2022/10/07 11:08:59;;;;;;;10.95;3.38;;;23.80;99.90;;;;;;5132285;27;20170;-80
2022/10/07 11:11:25;;;;;;;10.95;3.25;;;24.20;99.90;;;;;;5135491;27;20363;-78
2022/10/07 11:14:00;;;;;;;6.97;2.70;;;24.30;99.90;;;;;;5135614;27;20653;-79
2022/10/07 11:16:47;;;;;;;10.25;2.90;;;24.50;99.90;;;;;;5136220;27;20181;-79
2022/10/07 11:19:29;;;;;;;5.70;2.70;;;24.70;99.90;;;;;;5135696;27;20174;-79
2022/10/07 11:21:59;;;;;;;7.75;2.70;;;24.50;99.90;;;;;;5136110;27;20167;-79
2022/10/07 11:24:31;;;;;;;11.68;2.90;;;24.80;99.90;;;;;;5136060;27;20235;-79
2022/10/07 11:27:19;;;;;;;8.35;2.90;;;24.70;99.90;;;;;;5135340;27;20225;-80
2022/10/07 11:30:14;;;;;;;7.28;2.78;;;24.40;99.90;;;;;;5135611;27;20214;-79
2022/10/07 11:32:56;;;;;;;6.30;2.78;;;24.40;99.90;;;;;;5134863;27;20166;-79
2022/10/07 11:35:24;;;;;;;8.80;2.42;;;24.00;99.90;;;;;;5119490;27;20177;-80
2022/10/07 11:37:59;;;;;;;7.38;2.70;;;24.40;99.90;;;;;;5135738;27;20186;-79
2022/10/07 11:40:30;;;;;;;7.93;2.55;;;24.20;99.90;;;;;;5135895;27;20182;-79
2022/10/07 11:43:01;;;;;;;9.15;2.72;;;23.90;99.90;;;;;;5134859;27;20188;-78
2022/10/07 11:45:32;;;;;;;7.30;2.78;;;23.70;99.90;;;;;;5135313;27;20253;-80
2022/10/07 11:48:21;;;;;;;8.85;3.47;;;23.50;99.90;;;;;;5135548;27;20293;-80
2022/10/07 11:50:58;;;;;;;13.13;2.80;;;23.10;99.90;;;;;;5135523;27;20170;-79
2022/10/07 11:53:27;;;;;;;8.80;3.03;;;22.10;99.90;;;;;;5135595;27;20174;-81
2022/10/07 11:56:24;;;;;;;8.68;3.03;;;21.70;99.90;;;;;;5135764;27;20633;-81
2022/10/07 11:59:01;;;;;;;9.23;2.80;;;22.00;99.90;;;;;;5134756;27;20206;-79
2022/10/07 12:01:30;;;;;;;9.90;2.75;;;22.10;99.90;;;;;;5134682;27;20170;-80
2022/10/07 12:04:14;;;;;;;9.98;2.60;;;22.40;99.90;;;;;;5135104;27;20202;-79
2022/10/07 12:07:35;;;;;;;6.93;2.55;;;22.50;99.90;;;;;;5135643;27;20202;-79
2022/10/07 12:10:20;;;;;;;6.70;2.50;;;22.30;99.90;;;;;;5052017;28;20682;-78
2022/10/07 12:12:51;;;;;;;8.02;2.50;;;21.60;1.00;;;;;;5051660;28;20272;-79
2022/10/07 12:15:33;;;;;;;8.55;2.33;;;21.30;1.00;;;;;;5052602;28;20314;-78
2022/10/07 12:18:04;;;;;;;8.25;2.85;;;20.70;1.00;;;;;;5052384;28;20173;-78
2022/10/07 12:20:33;;;;;;;8.07;2.90;;;21.00;35.00;;;;;;5052002;28;20204;-77
2022/10/07 12:23:20;;;;;;;5.47;2.47;;;20.90;1.00;;;;;;5050599;28;20614;-76
2022/10/07 12:26:01;;;;;;;7.05;2.75;;;20.40;1.00;;;;;;5051693;28;20192;-77
2022/10/07 12:28:34;;;;;;;11.77;4.80;;;20.30;1.00;;;;;;5051743;28;20169;-78
2022/10/07 12:31:13;;;;;;;13.98;3.00;;;20.20;99.90;;;;;;5051215;28;20217;-77
2022/10/07 12:33:53;;;;;;;9.65;3.03;;;19.90;99.90;;;;;;5051256;28;20184;-75
2022/10/07 12:36:22;;;;;;;7.13;2.33;;;19.90;86.00;;;;;;5051842;28;20177;-75
2022/10/07 12:38:57;;;;;;;13.38;2.90;;;19.80;89.10;;;;;;5051858;28;20264;-77
2022/10/07 12:41:30;;;;;;;12.68;2.80;;;19.80;88.10;;;;;;5043351;28;20183;-77
2022/10/07 12:44:05;;;;;;;9.75;2.78;;;19.90;88.10;;;;;;5100358;27;20187;-77
2022/10/07 12:46:37;;;;;;;10.95;2.85;;;20.00;88.20;;;;;;5111691;28;20200;-76
2022/10/07 12:49:13;;;;;;;10.98;2.58;;;20.10;86.50;;;;;;5115544;27;20591;-76
2022/10/07 12:51:39;;;;;;;8.63;2.83;;;20.00;86.70;;;;;;5133270;27;20166;-74
2022/10/07 12:54:11;;;;;;;6.45;2.35;;;19.80;84.80;;;;;;5133666;27;20221;-76
2022/10/07 12:56:43;;;;;;;7.13;2.65;;;19.70;87.00;;;;;;5133858;27;20170;-76
2022/10/07 12:59:49;;;;;;;9.05;3.00;;;19.50;87.80;;;;;;5134126;27;20624;-76
2022/10/07 13:02:35;;;;;;;11.10;2.60;;;19.60;88.80;;;;;;5030503;28;20182;-76
2022/10/07 13:05:20;;;;;;;9.10;2.72;;;19.60;88.90;;;;;;5030065;28;20300;-76
2022/10/07 13:08:10;;;;;;;7.13;2.22;;;19.60;89.40;;;;;;5030270;28;20737;-76
2022/10/07 13:11:02;;;;;;;8.63;2.28;;;19.80;88.00;;;;;;5030497;28;20257;-77